Time;durP1;ratioP1;P1;durP2;ratioP2;P2;SDS_P1;SDS_P2;PMS_P1;PMS_P2;Temp;Humidity;BMP_temperature;BMP_pressure;BME280_temperature;BME280_humidity;BME280_pressure;Samples;Min_cycle;Max_cycle;Signal;HPM_P1;HPM_P2
2022/01/20 00:01:15;;;;;;;6.38;1.25;;;3.70;99.90;;;;;;5004554;28;20100;-76
2022/01/20 00:03:42;;;;;;;8.35;1.08;;;3.70;99.90;;;;;;5003793;28;20015;-77
2022/01/20 00:28:09;;;;;;;0.95;0.73;;;3.70;99.90;;;;;;4944782;29;20159;-77
2022/01/20 00:37:15;;;;;;;3.78;0.60;;;3.60;99.90;;;;;;5004092;28;20486;-76
2022/01/20 00:38:22;;;;;;;1.33;0.75;;;3.50;99.90;;;;;;5004483;28;20038;-76
2022/01/20 00:40:48;;;;;;;1.48;0.30;;;3.50;99.90;;;;;;5004384;28;20037;-78
2022/01/20 00:43:15;;;;;;;10.10;0.80;;;3.40;99.90;;;;;;4986853;28;20037;-76
2022/01/20 00:45:41;;;;;;;5.57;1.00;;;3.40;99.90;;;;;;5002829;28;20023;-75
2022/01/20 00:48:07;;;;;;;11.18;1.20;;;3.30;99.90;;;;;;5003554;28;20030;-76
2022/01/20 00:50:35;;;;;;;2.78;0.25;;;3.30;99.90;;;;;;5005003;28;20030;-76
2022/01/20 00:53:02;;;;;;;3.25;0.43;;;3.30;99.90;;;;;;5004749;28;20052;-76
2022/01/20 00:55:28;;;;;;;1.95;0.77;;;3.20;99.90;;;;;;5004433;28;20077;-75
2022/01/20 00:57:53;;;;;;;8.82;0.50;;;3.20;99.90;;;;;;4987162;28;20026;-74
2022/01/20 01:00:26;;;;;;;5.25;0.52;;;3.20;99.90;;;;;;4987210;28;20027;-73
2022/01/20 01:02:51;;;;;;;0.73;0.35;;;3.10;99.90;;;;;;5004335;28;20034;-73
2022/01/20 01:05:17;;;;;;;0.10;0.10;;;3.10;99.90;;;;;;4987233;28;20026;-74
2022/01/20 01:07:51;;;;;;;7.35;0.80;;;3.10;99.90;;;;;;5004284;28;20038;-76
2022/01/20 01:10:25;;;;;;;6.35;0.50;;;3.10;99.90;;;;;;4986776;28;20088;-75
2022/01/20 01:12:59;;;;;;;;;;;3.10;99.90;;;;;;5004914;28;20042;-74
2022/01/20 01:15:31;;;;;;;0.50;0.35;;;3.00;99.90;;;;;;5002356;28;19922;-75
2022/01/20 01:23:22;;;;;;;4.38;0.43;;;3.10;99.90;;;;;;5004169;28;20029;-76
2022/01/20 01:25:48;;;;;;;6.65;0.55;;;3.10;99.90;;;;;;5004541;28;20054;-75
2022/01/20 01:28:16;;;;;;;11.05;0.80;;;3.10;99.90;;;;;;5004588;28;20034;-76
2022/01/20 01:31:14;;;;;;;11.82;0.93;;;3.10;99.90;;;;;;5003797;28;20020;-77
2022/01/20 01:33:29;;;;;;;9.85;1.25;;;3.10;99.90;;;;;;5004075;28;20034;-77
2022/01/20 01:35:57;;;;;;;8.95;0.75;;;3.20;99.90;;;;;;4986869;28;20030;-77
2022/01/20 01:40:50;;;;;;;7.38;2.33;;;3.30;99.90;;;;;;5004130;28;20503;-76
2022/01/20 01:43:20;;;;;;;6.65;0.90;;;3.30;99.90;;;;;;5004364;28;20023;-75
2022/01/20 01:45:48;;;;;;;5.85;0.57;;;3.40;99.90;;;;;;5004050;28;20034;-77
2022/01/20 01:48:13;;;;;;;2.95;0.40;;;3.40;99.90;;;;;;5003796;28;20049;-80
2022/01/20 01:50:39;;;;;;;2.28;0.73;;;3.40;99.90;;;;;;5004075;28;20082;-80
2022/01/20 01:53:07;;;;;;;6.97;0.73;;;3.30;99.90;;;;;;5002864;28;20022;-76
2022/01/20 01:55:34;;;;;;;1.52;0.85;;;3.30;99.90;;;;;;5004224;28;20038;-79
2022/01/20 01:58:00;;;;;;;10.57;1.40;;;3.30;99.90;;;;;;5007718;28;20089;-79
2022/01/20 02:00:26;;;;;;;4.85;1.05;;;3.30;99.90;;;;;;5007404;28;20041;-75
2022/01/20 02:02:52;;;;;;;7.78;0.98;;;3.20;99.90;;;;;;5006983;28;20030;-80
2022/01/20 02:05:19;;;;;;;4.50;1.25;;;3.30;99.90;;;;;;5005847;28;20049;-76
2022/01/20 02:18:42;;;;;;;3.35;0.68;;;3.10;99.90;;;;;;5006979;28;20061;-80
2022/01/20 02:21:08;;;;;;;1.33;0.20;;;3.10;99.90;;;;;;5005736;28;20027;-76
2022/01/20 02:23:34;;;;;;;1.77;0.32;;;3.10;99.90;;;;;;4989906;28;20031;-76
2022/01/20 02:26:00;;;;;;;1.52;0.17;;;3.10;99.90;;;;;;5005800;28;20057;-77
2022/01/20 02:28:27;;;;;;;0.65;0.20;;;3.10;99.90;;;;;;5006054;28;20027;-75
2022/01/20 02:30:54;;;;;;;2.88;0.73;;;3.00;99.90;;;;;;5005711;28;20098;-78
2022/01/20 02:33:22;;;;;;;6.70;0.60;;;3.00;99.90;;;;;;5006729;28;20090;-76
2022/01/20 02:35:50;;;;;;;0.30;0.30;;;3.10;99.90;;;;;;5007703;28;20030;-74
2022/01/20 02:38:23;;;;;;;0.25;0.20;;;3.10;99.90;;;;;;5004829;28;20026;-78
2022/01/20 02:46:07;;;;;;;3.50;1.02;;;3.10;99.90;;;;;;5006684;28;20110;-77
2022/01/20 02:48:35;;;;;;;5.07;1.08;;;3.10;99.90;;;;;;4989683;28;20097;-75
2022/01/20 02:51:01;;;;;;;2.95;0.47;;;3.00;99.90;;;;;;5005404;28;20053;-74
2022/01/20 02:53:27;;;;;;;4.03;0.95;;;3.00;99.90;;;;;;4988237;28;20030;-75
2022/01/20 02:55:52;;;;;;;5.68;1.13;;;3.00;99.90;;;;;;5000556;28;20035;-77
2022/01/20 02:58:18;;;;;;;9.70;0.55;;;3.00;99.90;;;;;;4987115;28;20118;-75
2022/01/20 03:00:45;;;;;;;15.32;0.50;;;3.00;99.90;;;;;;5001805;28;20109;-76
2022/01/20 03:03:12;;;;;;;15.40;1.23;;;3.00;99.90;;;;;;4987364;28;20023;-75
2022/01/20 03:05:38;;;;;;;3.50;0.63;;;3.00;99.90;;;;;;4987322;28;20034;-74
2022/01/20 03:08:04;;;;;;;6.93;1.25;;;3.10;99.90;;;;;;4985756;28;20027;-77
2022/01/20 03:10:30;;;;;;;7.13;1.65;;;3.10;99.90;;;;;;4985841;28;20027;-75
2022/01/20 03:12:57;;;;;;;2.85;0.57;;;3.00;99.90;;;;;;5001680;28;20046;-74
2022/01/20 03:15:23;;;;;;;5.00;1.25;;;3.00;99.90;;;;;;5004428;28;20089;-75
2022/01/20 03:17:49;;;;;;;4.38;1.42;;;2.90;99.90;;;;;;5005217;28;20033;-75
2022/01/20 03:20:16;;;;;;;5.28;0.73;;;2.90;99.90;;;;;;5004551;28;20022;-74
2022/01/20 03:22:42;;;;;;;6.45;2.47;;;2.80;99.90;;;;;;5006075;28;20030;-76
2022/01/20 03:25:07;;;;;;;8.77;1.17;;;2.70;99.90;;;;;;5005750;28;20025;-76
2022/01/20 03:27:34;;;;;;;4.53;1.60;;;2.60;99.90;;;;;;5006117;28;20168;-77
2022/01/20 03:29:59;;;;;;;7.78;1.55;;;2.50;99.90;;;;;;5004812;28;20117;-75
2022/01/20 03:32:25;;;;;;;6.07;1.02;;;2.50;99.90;;;;;;5005907;28;20073;-74
2022/01/20 03:34:50;;;;;;;7.00;2.30;;;2.40;99.90;;;;;;5005539;28;20042;-72
2022/01/20 03:37:16;;;;;;;14.60;1.40;;;2.40;99.90;;;;;;5005944;28;20032;-76
2022/01/20 03:39:42;;;;;;;6.50;1.17;;;2.30;99.90;;;;;;5005921;28;20042;-74
2022/01/20 03:42:08;;;;;;;2.05;1.30;;;2.30;99.90;;;;;;5005535;28;20031;-78
2022/01/20 03:44:34;;;;;;;12.50;1.27;;;2.30;99.90;;;;;;5006019;28;20471;-73
2022/01/20 03:47:02;;;;;;;17.60;2.40;;;2.30;99.90;;;;;;5005889;28;20438;-77
2022/01/20 03:49:39;;;;;;;17.77;1.38;;;2.30;99.90;;;;;;5005516;28;20054;-77
2022/01/20 03:52:07;;;;;;;9.20;1.77;;;2.30;99.90;;;;;;5005858;28;20105;-74
2022/01/20 03:54:33;;;;;;;16.73;1.67;;;2.40;99.90;;;;;;5004644;28;20067;-73
2022/01/20 03:56:59;;;;;;;3.10;1.88;;;2.40;99.90;;;;;;5005364;28;20054;-74
2022/01/20 03:59:25;;;;;;;9.50;1.10;;;2.30;99.90;;;;;;5005389;28;20041;-74
2022/01/20 04:01:51;;;;;;;3.67;1.50;;;2.30;99.90;;;;;;5005048;28;20033;-75
2022/01/20 04:04:16;;;;;;;13.35;2.22;;;2.40;99.90;;;;;;5005193;28;20026;-74
2022/01/20 04:06:42;;;;;;;16.45;1.92;;;2.40;99.90;;;;;;5005215;28;20031;-74
2022/01/20 04:09:07;;;;;;;3.50;1.08;;;2.40;99.90;;;;;;5004609;28;20022;-74
2022/01/20 04:11:33;;;;;;;1.15;0.70;;;2.40;99.90;;;;;;5005180;28;20027;-72
2022/01/20 04:13:59;;;;;;;0.82;0.73;;;2.40;99.90;;;;;;5004455;28;20034;-74
2022/01/20 04:16:37;;;;;;;4.80;0.73;;;2.30;99.90;;;;;;4987153;28;20026;-74
2022/01/20 04:19:08;;;;;;;8.57;1.80;;;2.20;99.90;;;;;;5005234;28;20046;-75
2022/01/20 04:21:34;;;;;;;2.40;1.05;;;2.20;99.90;;;;;;5005598;28;20078;-76
2022/01/20 04:24:02;;;;;;;13.80;1.17;;;2.10;99.90;;;;;;5005005;28;20090;-73
2022/01/20 04:26:29;;;;;;;1.38;0.85;;;2.10;99.90;;;;;;5003652;28;20026;-76
2022/01/20 04:28:58;;;;;;;3.47;1.27;;;2.10;99.90;;;;;;5004896;28;20042;-79
2022/01/20 04:31:24;;;;;;;12.90;2.38;;;2.00;99.90;;;;;;5005017;28;20045;-73
2022/01/20 04:33:50;;;;;;;1.83;0.82;;;2.00;99.90;;;;;;5005174;28;20082;-75
2022/01/20 04:36:17;;;;;;;5.15;1.48;;;2.00;99.90;;;;;;5003788;28;20027;-76
2022/01/20 04:38:42;;;;;;;17.60;1.33;;;1.90;99.90;;;;;;5006566;28;20033;-75
2022/01/20 04:41:09;;;;;;;4.53;0.52;;;1.90;99.90;;;;;;5005133;28;20026;-75
2022/01/20 04:43:41;;;;;;;5.47;0.75;;;1.90;99.90;;;;;;5004273;28;20113;-78
2022/01/20 04:46:29;;;;;;;10.40;0.90;;;1.90;99.90;;;;;;5004640;28;20034;-77
2022/01/20 04:59:28;;;;;;;2.58;1.08;;;2.10;99.90;;;;;;5004167;28;20034;-75
2022/01/20 05:01:54;;;;;;;14.57;1.38;;;2.10;99.90;;;;;;5004789;28;20019;-75
2022/01/20 05:04:21;;;;;;;1.55;1.10;;;2.10;99.90;;;;;;5003162;28;20026;-76
2022/01/20 05:06:53;;;;;;;8.95;1.55;;;2.10;99.90;;;;;;5002816;28;20033;-78
2022/01/20 05:09:20;;;;;;;6.25;1.67;;;2.10;99.90;;;;;;5004712;28;20049;-77
2022/01/20 05:11:51;;;;;;;13.93;2.50;;;2.20;99.90;;;;;;5003248;28;20042;-75
2022/01/20 05:14:17;;;;;;;9.57;1.70;;;2.20;99.90;;;;;;5004156;28;20398;-75
2022/01/20 05:16:42;;;;;;;10.38;1.23;;;2.20;99.90;;;;;;5003290;28;20117;-75
2022/01/20 05:19:12;;;;;;;4.55;0.68;;;2.20;99.90;;;;;;5004260;28;20423;-76
2022/01/20 05:21:38;;;;;;;7.68;1.17;;;2.10;99.90;;;;;;5004780;28;20031;-76
2022/01/20 05:24:06;;;;;;;12.18;0.70;;;2.10;99.90;;;;;;5004164;28;20050;-75
2022/01/20 05:26:33;;;;;;;3.58;0.43;;;2.10;99.90;;;;;;5003040;28;20387;-75
2022/01/20 05:28:58;;;;;;;3.60;1.02;;;2.00;99.90;;;;;;5002863;28;20031;-74
2022/01/20 05:31:24;;;;;;;6.57;1.45;;;1.90;99.90;;;;;;5005337;28;20471;-74
2022/01/20 05:33:49;;;;;;;11.15;1.35;;;2.00;99.90;;;;;;4990576;28;20037;-74
2022/01/20 05:36:15;;;;;;;9.00;1.13;;;1.90;99.90;;;;;;5008144;28;20030;-74
2022/01/20 05:38:44;;;;;;;12.40;1.48;;;2.00;99.90;;;;;;5007727;28;20030;-76
2022/01/20 05:41:10;;;;;;;13.63;1.00;;;2.00;99.90;;;;;;5006279;28;20382;-76
2022/01/20 05:43:35;;;;;;;3.83;1.25;;;1.90;99.90;;;;;;5008043;28;20031;-74
2022/01/20 05:46:03;;;;;;;7.90;1.05;;;2.00;99.90;;;;;;5007994;28;20030;-75
2022/01/20 05:48:34;;;;;;;9.10;2.08;;;1.90;99.90;;;;;;5007696;28;20064;-75
2022/01/20 05:51:02;;;;;;;4.13;2.00;;;2.00;99.90;;;;;;5006639;28;20441;-74
2022/01/20 05:53:28;;;;;;;6.20;2.38;;;2.00;99.90;;;;;;5006520;28;20098;-78
2022/01/20 05:55:54;;;;;;;2.83;1.23;;;1.90;99.90;;;;;;5007619;28;20061;-75
2022/01/20 05:58:19;;;;;;;10.73;2.22;;;2.00;99.90;;;;;;5007833;28;20482;-75
2022/01/20 06:00:46;;;;;;;11.43;0.70;;;2.00;99.90;;;;;;5007151;28;20074;-77
2022/01/20 06:05:56;;;;;;;10.43;1.92;;;2.00;99.90;;;;;;5007805;28;20038;-75
2022/01/20 06:08:22;;;;;;;4.88;0.63;;;1.90;99.90;;;;;;5006700;28;20022;-77
2022/01/20 06:10:47;;;;;;;6.55;1.45;;;1.90;99.90;;;;;;5007523;28;20030;-76
2022/01/20 06:13:13;;;;;;;3.42;1.60;;;1.90;99.90;;;;;;5007048;28;20062;-76
2022/01/20 06:15:39;;;;;;;10.93;1.00;;;1.90;99.90;;;;;;5005342;28;20058;-76
2022/01/20 06:18:04;;;;;;;9.45;1.80;;;1.80;99.90;;;;;;5005367;28;20034;-78
2022/01/20 06:20:31;;;;;;;11.38;1.40;;;1.80;99.90;;;;;;4989552;28;20109;-77
2022/01/20 06:22:57;;;;;;;16.42;1.15;;;1.90;99.90;;;;;;5007525;28;20496;-79
2022/01/20 06:25:23;;;;;;;9.65;1.00;;;1.90;99.90;;;;;;5007590;28;20054;-76
2022/01/20 06:27:49;;;;;;;11.10;1.67;;;1.90;99.90;;;;;;5006688;28;20026;-77
2022/01/20 06:30:15;;;;;;;1.48;1.25;;;1.80;99.90;;;;;;5006568;28;20054;-75
2022/01/20 06:32:42;;;;;;;9.02;1.80;;;1.80;99.90;;;;;;5007468;28;20053;-74
2022/01/20 06:35:09;;;;;;;2.72;1.42;;;1.80;99.90;;;;;;4989029;28;20102;-76
2022/01/20 06:37:35;;;;;;;18.10;1.65;;;1.80;99.90;;;;;;5007271;28;20050;-73
2022/01/20 06:40:02;;;;;;;7.95;1.33;;;1.80;99.90;;;;;;5007296;28;20037;-72
2022/01/20 06:42:28;;;;;;;23.75;2.95;;;1.80;99.90;;;;;;5004607;28;20032;-76
2022/01/20 06:44:53;;;;;;;3.58;0.70;;;1.80;99.90;;;;;;5006514;28;20032;-74
2022/01/20 06:47:20;;;;;;;1.80;0.88;;;1.70;99.90;;;;;;5006887;28;20027;-75
2022/01/20 06:49:46;;;;;;;2.13;0.80;;;1.80;99.90;;;;;;5006659;28;20030;-76
2022/01/20 06:52:12;;;;;;;13.35;1.05;;;1.80;99.90;;;;;;5003546;28;20118;-78
2022/01/20 06:54:38;;;;;;;30.95;2.15;;;1.80;99.90;;;;;;4997981;28;20038;-77
2022/01/20 06:57:04;;;;;;;7.43;1.90;;;1.80;99.90;;;;;;5005098;28;20023;-76
2022/01/20 06:59:30;;;;;;;8.65;1.40;;;1.80;99.90;;;;;;5005953;28;20434;-76
2022/01/20 07:01:56;;;;;;;7.65;2.05;;;1.90;99.90;;;;;;5005027;28;20030;-75
2022/01/20 07:04:23;;;;;;;16.67;2.10;;;1.80;99.90;;;;;;5004790;28;20038;-75
2022/01/20 07:06:49;;;;;;;6.40;1.52;;;1.90;99.90;;;;;;5005555;28;20034;-75
2022/01/20 07:09:14;;;;;;;2.08;0.95;;;1.80;99.90;;;;;;5006117;28;20026;-73
2022/01/20 07:11:41;;;;;;;8.23;1.35;;;1.90;99.90;;;;;;5006180;28;20037;-74
2022/01/20 07:14:08;;;;;;;7.72;1.23;;;1.90;99.90;;;;;;5006261;28;20043;-74
2022/01/20 07:16:35;;;;;;;2.25;0.55;;;1.90;99.90;;;;;;4995968;28;20030;-74
2022/01/20 07:19:01;;;;;;;8.80;1.73;;;1.90;99.90;;;;;;4998922;28;20431;-75
2022/01/20 07:21:27;;;;;;;2.38;1.02;;;2.00;99.90;;;;;;5005988;28;20041;-77
2022/01/20 07:23:53;;;;;;;0.95;0.30;;;2.00;99.90;;;;;;5005117;28;20813;-76
2022/01/20 07:26:19;;;;;;;15.43;1.20;;;2.00;99.90;;;;;;5005404;28;20035;-76
2022/01/20 07:28:44;;;;;;;10.57;1.67;;;2.10;99.90;;;;;;5003698;28;20029;-75
2022/01/20 07:31:10;;;;;;;1.55;0.75;;;2.10;99.90;;;;;;5005944;28;20553;-75
2022/01/20 07:33:36;;;;;;;7.22;0.90;;;2.10;99.90;;;;;;5001450;28;20035;-77
2022/01/20 07:36:06;;;;;;;8.43;2.20;;;2.20;99.90;;;;;;4991591;28;20026;-81
2022/01/20 07:38:32;;;;;;;3.92;0.90;;;2.10;99.90;;;;;;5001631;28;20030;-80
2022/01/20 07:40:58;;;;;;;3.65;1.60;;;2.10;99.90;;;;;;5005125;28;20538;-77
2022/01/20 07:43:24;;;;;;;9.10;0.85;;;2.20;99.90;;;;;;5003689;28;20022;-78
2022/01/20 07:45:49;;;;;;;7.45;0.98;;;2.20;99.90;;;;;;4992971;28;20027;-80
2022/01/20 07:48:15;;;;;;;4.28;1.40;;;2.20;99.90;;;;;;4998986;28;20030;-76
2022/01/20 07:50:40;;;;;;;7.95;1.52;;;2.30;99.90;;;;;;4999833;28;20023;-79
2022/01/20 07:53:06;;;;;;;3.33;0.70;;;2.30;99.90;;;;;;4999970;28;20033;-76
2022/01/20 07:55:32;;;;;;;14.60;1.65;;;2.30;99.90;;;;;;4988032;28;20046;-78
2022/01/20 07:57:58;;;;;;;8.88;0.85;;;2.30;99.90;;;;;;5005760;28;20045;-79
2022/01/20 08:00:23;;;;;;;2.35;1.08;;;2.20;99.90;;;;;;5004490;28;20030;-79
2022/01/20 08:02:49;;;;;;;8.95;0.93;;;2.20;99.90;;;;;;5004374;28;20038;-79
2022/01/20 08:05:14;;;;;;;11.98;1.42;;;2.10;99.90;;;;;;5004461;28;20030;-79
2022/01/20 08:07:40;;;;;;;13.18;1.35;;;2.10;99.90;;;;;;5003763;28;20022;-80
2022/01/20 08:10:07;;;;;;;19.95;1.98;;;2.00;99.90;;;;;;4987496;28;20026;-79
2022/01/20 08:12:35;;;;;;;1.83;0.63;;;2.00;99.90;;;;;;5005459;28;20030;-76
2022/01/20 08:15:01;;;;;;;4.65;1.27;;;1.90;99.90;;;;;;4995700;28;20054;-78
2022/01/20 08:17:27;;;;;;;12.70;2.55;;;2.00;99.90;;;;;;4964688;29;20058;-79
2022/01/20 08:19:53;;;;;;;5.25;1.33;;;2.00;99.90;;;;;;4976022;28;20078;-78
2022/01/20 08:22:19;;;;;;;6.60;1.35;;;2.00;99.90;;;;;;5000564;28;20035;-78
2022/01/20 08:24:49;;;;;;;3.70;1.27;;;2.00;99.90;;;;;;4985980;28;20050;-76
2022/01/20 08:27:17;;;;;;;2.83;0.75;;;2.00;99.90;;;;;;4995856;28;20447;-80
2022/01/20 08:29:43;;;;;;;11.25;1.17;;;2.00;99.90;;;;;;5019768;28;20391;-78
2022/01/20 08:32:09;;;;;;;2.78;0.85;;;2.10;99.90;;;;;;4997299;28;20054;-78
2022/01/20 08:34:34;;;;;;;10.77;1.88;;;2.20;99.90;;;;;;4981223;28;20078;-81
2022/01/20 08:37:00;;;;;;;3.80;1.13;;;2.40;99.90;;;;;;4978569;28;20045;-81
2022/01/20 08:42:00;;;;;;;14.80;2.15;;;2.70;99.90;;;;;;4978953;28;20031;-79
2022/01/20 08:44:26;;;;;;;9.68;1.38;;;2.80;99.90;;;;;;4977740;28;20043;-80
2022/01/20 08:46:57;;;;;;;6.50;1.10;;;2.80;99.90;;;;;;4966069;28;20058;-77
2022/01/20 08:49:24;;;;;;;13.55;1.08;;;2.80;99.90;;;;;;4965083;28;20031;-78
2022/01/20 08:51:51;;;;;;;6.88;1.25;;;2.80;99.90;;;;;;4984758;28;20046;-80
2022/01/20 08:54:17;;;;;;;4.15;1.52;;;2.50;99.90;;;;;;4990012;28;20056;-79
2022/01/20 08:56:43;;;;;;;2.58;1.40;;;2.50;99.90;;;;;;4973871;28;20062;-81
2022/01/20 08:59:12;;;;;;;7.85;1.88;;;2.40;99.90;;;;;;4975394;28;20031;-81
2022/01/20 09:01:40;;;;;;;7.82;1.75;;;2.40;99.90;;;;;;4981583;28;20034;-81
2022/01/20 09:04:09;;;;;;;10.68;1.42;;;2.40;99.90;;;;;;4979292;28;20110;-79
2022/01/20 09:06:35;;;;;;;16.38;2.78;;;2.40;99.90;;;;;;4973256;28;20018;-81
2022/01/20 09:09:01;;;;;;;7.22;0.85;;;2.40;99.90;;;;;;4983131;28;20090;-76
2022/01/20 09:11:36;;;;;;;16.23;2.80;;;2.60;99.90;;;;;;4981872;28;20031;-76
2022/01/20 09:16:47;;;;;;;2.17;1.27;;;3.20;99.90;;;;;;4999669;28;20037;-78
2022/01/20 09:19:14;;;;;;;4.78;2.13;;;3.20;99.90;;;;;;4998129;28;20117;-81
2022/01/20 09:21:40;;;;;;;12.40;1.45;;;3.20;99.90;;;;;;5008526;28;20370;-78
2022/01/20 09:24:13;;;;;;;6.60;1.98;;;3.10;99.90;;;;;;4985983;28;20050;-80
2022/01/20 09:26:38;;;;;;;10.27;1.25;;;3.00;99.90;;;;;;4991069;28;20402;-80
2022/01/20 09:29:04;;;;;;;9.48;1.92;;;2.90;99.90;;;;;;5007612;28;20026;-78
2022/01/20 09:31:36;;;;;;;7.03;1.55;;;2.80;99.90;;;;;;5008387;28;20426;-81
2022/01/20 09:34:09;;;;;;;15.88;2.47;;;2.80;99.90;;;;;;5006543;28;20069;-77
2022/01/20 09:36:36;;;;;;;5.22;1.30;;;2.70;99.90;;;;;;5007034;28;20026;-83
2022/01/20 09:39:04;;;;;;;10.48;0.93;;;2.70;99.90;;;;;;5005634;28;20045;-77
2022/01/20 09:41:30;;;;;;;6.22;1.02;;;2.70;99.90;;;;;;4989702;28;20034;-79
2022/01/20 09:43:56;;;;;;;15.40;1.58;;;2.70;99.90;;;;;;5008225;28;20043;-75
2022/01/20 09:46:21;;;;;;;14.63;2.75;;;2.70;99.90;;;;;;5006487;28;20094;-79
2022/01/20 09:48:47;;;;;;;13.00;0.98;;;3.00;99.90;;;;;;5008479;28;20018;-80
2022/01/20 09:51:13;;;;;;;3.22;1.65;;;3.30;99.90;;;;;;5006971;28;20057;-78
2022/01/20 09:53:40;;;;;;;5.43;0.75;;;3.30;99.90;;;;;;5005432;28;20073;-79
2022/01/20 09:56:15;;;;;;;4.15;0.68;;;3.10;99.90;;;;;;5006671;28;20034;-80
2022/01/20 09:58:42;;;;;;;4.13;1.33;;;2.80;99.90;;;;;;5006437;28;20093;-76
2022/01/20 10:01:08;;;;;;;3.60;0.63;;;2.50;99.90;;;;;;4990452;28;20053;-72
2022/01/20 10:03:37;;;;;;;7.82;0.70;;;2.30;99.90;;;;;;5008453;28;20034;-80
2022/01/20 10:06:04;;;;;;;2.17;1.02;;;2.10;99.90;;;;;;5007541;28;20052;-79
2022/01/20 10:08:35;;;;;;;6.70;1.63;;;2.00;99.90;;;;;;5007313;28;20041;-77
2022/01/20 10:11:09;;;;;;;1.70;0.57;;;1.90;99.90;;;;;;5003949;28;20034;-79
2022/01/20 10:13:42;;;;;;;2.87;1.27;;;2.00;99.90;;;;;;5007696;28;20023;-74
2022/01/20 10:16:14;;;;;;;7.50;1.43;;;2.50;99.90;;;;;;5004779;28;20054;-82
2022/01/20 10:18:52;;;;;;;3.42;1.00;;;3.10;99.90;;;;;;4996394;28;20062;-79
2022/01/20 10:21:26;;;;;;;0.63;0.20;;;3.70;99.90;;;;;;5006252;28;20100;-78
2022/01/20 10:23:51;;;;;;;4.35;1.70;;;4.20;99.90;;;;;;5001276;28;20087;-76
2022/01/20 10:26:20;;;;;;;3.17;0.35;;;4.50;99.90;;;;;;5003287;28;20061;-81
2022/01/20 10:28:54;;;;;;;2.92;0.77;;;4.80;99.90;;;;;;4987917;28;20026;-80
2022/01/20 10:31:40;;;;;;;5.35;1.05;;;5.00;99.90;;;;;;5001197;28;20077;-79
2022/01/20 10:34:38;;;;;;;3.55;0.80;;;5.40;99.90;;;;;;5006685;28;20040;-78
2022/01/20 10:37:14;;;;;;;5.18;1.17;;;5.70;99.90;;;;;;4976956;28;20035;-76
2022/01/20 10:39:46;;;;;;;1.70;0.60;;;5.90;99.90;;;;;;5003880;28;20038;-80
2022/01/20 10:42:14;;;;;;;5.30;1.23;;;6.00;99.90;;;;;;5004169;28;20102;-80
2022/01/20 10:44:46;;;;;;;3.13;1.08;;;6.10;99.90;;;;;;4992532;28;20038;-75
2022/01/20 10:47:14;;;;;;;7.07;1.60;;;6.30;99.90;;;;;;4998784;28;20037;-78
2022/01/20 10:49:42;;;;;;;3.15;0.63;;;6.30;99.90;;;;;;5000974;28;20041;-75
2022/01/20 10:52:12;;;;;;;2.75;0.70;;;6.40;99.90;;;;;;5003154;28;20092;-76
2022/01/20 10:54:44;;;;;;;3.58;0.88;;;6.60;99.90;;;;;;5002639;28;20038;-77
2022/01/20 10:57:13;;;;;;;9.63;1.58;;;6.30;99.90;;;;;;4993031;28;20039;-75
2022/01/20 10:59:50;;;;;;;4.15;0.98;;;5.80;99.90;;;;;;4966406;28;20035;-78
2022/01/20 11:02:19;;;;;;;3.92;0.98;;;5.20;99.90;;;;;;4998057;28;20034;-75
2022/01/20 11:04:45;;;;;;;5.18;0.85;;;4.70;99.90;;;;;;4999154;28;20561;-75
2022/01/20 11:07:28;;;;;;;6.70;1.48;;;4.30;99.90;;;;;;5001993;28;20084;-79
2022/01/20 11:10:06;;;;;;;3.03;1.05;;;4.50;99.90;;;;;;5007287;28;20030;-81
2022/01/20 11:12:35;;;;;;;9.95;1.30;;;5.10;99.90;;;;;;5025084;28;20018;-79
2022/01/20 11:15:06;;;;;;;4.18;0.75;;;5.60;99.90;;;;;;5020342;28;20775;-75
2022/01/20 11:17:35;;;;;;;7.43;1.73;;;6.00;99.90;;;;;;5007655;28;20065;-75
2022/01/20 11:20:21;;;;;;;4.13;0.75;;;6.40;99.90;;;;;;5002724;28;20038;-75
2022/01/20 11:22:58;;;;;;;3.42;1.10;;;6.90;99.90;;;;;;4985465;28;20050;-77
2022/01/20 11:25:27;;;;;;;2.97;0.65;;;7.20;99.90;;;;;;4990985;28;20027;-74
2022/01/20 11:28:15;;;;;;;19.23;1.77;;;7.10;99.90;;;;;;5000193;28;20121;-76
2022/01/20 11:31:04;;;;;;;14.55;1.40;;;6.70;99.90;;;;;;4988550;28;20027;-77
2022/01/20 11:33:42;;;;;;;6.85;1.85;;;6.10;99.90;;;;;;4985440;28;20423;-75
2022/01/20 11:36:21;;;;;;;7.25;1.73;;;5.40;99.90;;;;;;4990990;28;20045;-77
2022/01/20 11:38:49;;;;;;;5.68;1.25;;;4.60;99.90;;;;;;5002575;28;20026;-75
2022/01/20 11:41:17;;;;;;;0.82;0.32;;;4.20;99.90;;;;;;5004786;28;20117;-75
2022/01/20 11:43:50;;;;;;;13.57;1.50;;;3.80;99.90;;;;;;5002266;28;20034;-74
2022/01/20 11:46:23;;;;;;;6.82;1.38;;;3.90;99.90;;;;;;4986782;28;20390;-79
2022/01/20 11:49:10;;;;;;;1.77;0.80;;;3.90;99.90;;;;;;5002807;28;20034;-75
2022/01/20 11:51:49;;;;;;;8.63;2.13;;;3.80;99.90;;;;;;5003013;28;20026;-76
2022/01/20 11:54:43;;;;;;;9.68;1.48;;;3.80;99.90;;;;;;5003998;28;20053;-75
2022/01/20 11:57:12;;;;;;;3.40;1.58;;;3.70;99.90;;;;;;5003487;28;20033;-76
2022/01/20 11:59:40;;;;;;;5.28;1.27;;;3.30;99.90;;;;;;5004288;28;20018;-76
2022/01/20 12:02:06;;;;;;;1.98;0.85;;;3.20;99.90;;;;;;4996256;28;20027;-77
2022/01/20 12:04:43;;;;;;;3.65;0.65;;;3.20;99.90;;;;;;4984302;28;20093;-75
2022/01/20 12:07:11;;;;;;;5.65;1.13;;;3.10;99.90;;;;;;4967258;28;20112;-74
2022/01/20 12:09:41;;;;;;;2.95;0.93;;;3.10;99.90;;;;;;4981715;28;20023;-75
2022/01/20 12:12:23;;;;;;;2.30;0.60;;;3.00;99.90;;;;;;4985341;28;20035;-75
2022/01/20 12:14:48;;;;;;;1.13;0.60;;;2.90;99.90;;;;;;4984255;28;20058;-74
2022/01/20 12:17:15;;;;;;;4.53;1.38;;;2.90;99.90;;;;;;4982894;28;20023;-73
2022/01/20 12:19:54;;;;;;;2.70;1.27;;;3.50;99.90;;;;;;5001515;28;20491;-77
2022/01/20 12:22:21;;;;;;;4.50;1.40;;;4.60;99.90;;;;;;4996079;28;20038;-74
2022/01/20 12:24:57;;;;;;;2.15;0.70;;;5.40;99.90;;;;;;5003027;28;20030;-73
2022/01/20 12:27:25;;;;;;;1.58;0.93;;;6.30;99.90;;;;;;4994473;28;20073;-76
2022/01/20 12:29:51;;;;;;;2.55;0.75;;;6.80;99.90;;;;;;5002567;28;20030;-75
2022/01/20 12:32:19;;;;;;;14.05;1.42;;;7.20;99.90;;;;;;5003589;28;20114;-72
2022/01/20 12:34:58;;;;;;;6.30;1.25;;;7.60;99.90;;;;;;5003947;28;20046;-72
2022/01/20 12:37:40;;;;;;;2.97;0.82;;;8.10;99.90;;;;;;4971582;28;20031;-74
2022/01/20 12:40:18;;;;;;;1.92;0.50;;;7.50;99.90;;;;;;5003508;28;20030;-74
2022/01/20 12:42:44;;;;;;;8.82;1.00;;;6.90;99.90;;;;;;5002643;28;20030;-73
2022/01/20 12:48:21;;;;;;;2.13;0.80;;;5.90;99.90;;;;;;4984768;28;20119;-75
2022/01/20 12:51:02;;;;;;;3.90;0.85;;;5.30;99.90;;;;;;4994513;28;20031;-72
2022/01/20 12:53:33;;;;;;;2.65;1.08;;;4.80;99.90;;;;;;4990716;28;20109;-76
2022/01/20 12:55:58;;;;;;;6.72;0.90;;;4.10;99.90;;;;;;5003346;28;20511;-74
2022/01/20 12:58:24;;;;;;;1.30;0.93;;;3.60;99.90;;;;;;4998428;28;20046;-76
2022/01/20 13:01:10;;;;;;;1.92;0.32;;;3.10;99.90;;;;;;4998415;28;20027;-74
2022/01/20 13:03:39;;;;;;;6.35;0.80;;;2.80;99.90;;;;;;4984408;28;20031;-76
2022/01/20 13:06:10;;;;;;;1.33;0.68;;;2.70;99.90;;;;;;4997570;28;20058;-76
2022/01/20 13:08:41;;;;;;;1.27;0.38;;;2.60;99.90;;;;;;5002094;28;20034;-74
2022/01/20 13:11:13;;;;;;;2.50;0.70;;;2.70;99.90;;;;;;5003829;28;20034;-78
2022/01/20 13:13:54;;;;;;;1.00;0.45;;;3.50;99.90;;;;;;5003073;28;20038;-77
2022/01/20 13:16:20;;;;;;;4.88;0.55;;;4.20;99.90;;;;;;5001436;28;20100;-77
2022/01/20 13:18:57;;;;;;;4.50;1.42;;;4.90;99.90;;;;;;4997386;28;20027;-78
2022/01/20 13:21:41;;;;;;;3.42;1.00;;;5.00;99.90;;;;;;4983635;28;20027;-74
2022/01/20 13:24:17;;;;;;;2.45;0.85;;;4.70;99.90;;;;;;4984376;28;20030;-75
2022/01/20 13:26:52;;;;;;;5.18;1.33;;;4.40;99.90;;;;;;4966361;28;20042;-81
2022/01/20 13:29:18;;;;;;;1.45;1.35;;;4.20;99.90;;;;;;4986389;28;20046;-76
2022/01/20 13:31:45;;;;;;;2.72;0.65;;;3.90;99.90;;;;;;5003452;28;20049;-75
2022/01/20 13:34:18;;;;;;;14.07;3.72;;;3.80;99.90;;;;;;5001870;28;20058;-78
2022/01/20 13:36:48;;;;;;;11.93;3.10;;;3.70;99.90;;;;;;5001746;28;20030;-76
2022/01/20 13:39:28;;;;;;;8.60;2.05;;;3.60;99.90;;;;;;4997881;28;20030;-76
2022/01/20 13:42:27;;;;;;;5.15;2.05;;;3.50;99.90;;;;;;4981603;28;20066;-74
2022/01/20 13:45:13;;;;;;;6.20;1.23;;;3.80;99.90;;;;;;4995139;28;20434;-75
2022/01/20 13:47:56;;;;;;;19.58;2.45;;;4.50;99.90;;;;;;5002059;28;20030;-76
2022/01/20 13:50:39;;;;;;;4.07;1.55;;;5.00;99.90;;;;;;5001292;28;20036;-74
2022/01/20 13:53:25;;;;;;;12.05;1.83;;;5.20;99.90;;;;;;5005635;28;20050;-75
2022/01/20 13:55:50;;;;;;;8.68;1.42;;;5.10;99.90;;;;;;5005079;28;20437;-75
2022/01/20 13:58:38;;;;;;;1.65;0.73;;;4.90;99.90;;;;;;5006160;28;20044;-76
2022/01/20 14:01:09;;;;;;;5.50;1.15;;;4.70;99.90;;;;;;5004934;28;20035;-75
2022/01/20 14:03:38;;;;;;;6.32;0.88;;;4.50;99.90;;;;;;5000328;28;20022;-76
2022/01/20 14:06:06;;;;;;;8.98;1.80;;;4.30;99.90;;;;;;5006845;28;20030;-76
2022/01/20 14:08:36;;;;;;;0.47;0.47;;;4.20;99.90;;;;;;4988828;28;20483;-74
2022/01/20 14:11:02;;;;;;;4.88;1.13;;;4.10;99.90;;;;;;4988823;28;20438;-75
2022/01/20 14:13:28;;;;;;;3.72;0.80;;;4.00;99.90;;;;;;5004754;28;20026;-74
2022/01/20 14:15:55;;;;;;;18.42;2.10;;;4.00;99.90;;;;;;5005590;28;20573;-77
2022/01/20 14:18:22;;;;;;;24.75;2.63;;;4.00;99.90;;;;;;5006384;28;20438;-73